createdAt,value
2022-08-20T00:02:19.525Z,1.20
2022-08-20T00:04:53.111Z,2.60
2022-08-20T00:07:24.067Z,1.70
2022-08-20T00:09:55.749Z,2.80
2022-08-20T00:12:26.535Z,3.50
2022-08-20T00:14:58.404Z,3.83
2022-08-20T00:17:29.830Z,2.47
2022-08-20T00:20:00.500Z,2.13
2022-08-20T00:22:32.194Z,3.90
2022-08-20T00:25:02.987Z,0.90
2022-08-20T00:27:33.961Z,1.00
2022-08-20T00:30:05.444Z,0.60
2022-08-20T00:32:45.805Z,3.88
2022-08-20T00:35:19.237Z,2.65
2022-08-20T00:37:50.265Z,0.55
2022-08-20T00:40:28.563Z,0.85
2022-08-20T00:43:01.954Z,0.52
2022-08-20T00:45:36.807Z,2.30
2022-08-20T00:48:07.694Z,5.30
2022-08-20T00:50:42.362Z,6.38
2022-08-20T00:53:17.891Z,3.63
2022-08-20T00:55:48.759Z,4.45
2022-08-20T00:58:19.698Z,3.47
2022-08-20T01:00:51.934Z,6.70
2022-08-20T01:03:23.617Z,10.85
2022-08-20T01:05:55.484Z,3.20
2022-08-20T01:08:31.382Z,1.50
2022-08-20T01:11:11.992Z,1.90
2022-08-20T01:13:46.512Z,0.90
2022-08-20T01:16:29.971Z,2.50
2022-08-20T01:19:03.150Z,1.15
2022-08-20T01:21:55.727Z,2.55
2022-08-20T01:24:39.091Z,2.20
2022-08-20T01:27:10.671Z,0.77
2022-08-20T01:29:44.869Z,1.65
2022-08-20T01:32:17.242Z,1.65
2022-08-20T01:34:47.971Z,0.50
2022-08-20T01:37:18.998Z,1.17
2022-08-20T01:39:49.747Z,2.05
2022-08-20T01:42:38.030Z,1.80
2022-08-20T01:45:30.835Z,0.70
2022-08-20T01:48:01.923Z,1.10
2022-08-20T01:50:35.178Z,0.95
2022-08-20T01:53:29.472Z,1.35
2022-08-20T01:56:00.429Z,3.83
2022-08-20T01:58:31.978Z,2.55
2022-08-20T02:01:02.913Z,1.17
2022-08-20T02:03:38.040Z,1.20
2022-08-20T02:06:10.703Z,2.50
2022-08-20T02:08:41.407Z,0.82
2022-08-20T02:11:15.060Z,2.47
2022-08-20T02:13:45.815Z,3.70
2022-08-20T02:16:16.553Z,0.73
2022-08-20T02:18:48.517Z,1.55
2022-08-20T02:21:20.129Z,2.17
2022-08-20T02:23:51.182Z,2.58
2022-08-20T02:26:22.088Z,1.70
2022-08-20T02:28:56.727Z,3.22
2022-08-20T02:31:35.082Z,0.47
2022-08-20T02:34:21.652Z,0.32
2022-08-20T02:36:53.392Z,0.32
2022-08-20T02:39:24.400Z,1.80
2022-08-20T02:41:55.631Z,0.77
2022-08-20T02:44:26.728Z,1.75
2022-08-20T02:46:59.572Z,0.93
2022-08-20T02:49:31.588Z,0.65
2022-08-20T02:52:08.121Z,1.80
2022-08-20T02:54:38.894Z,2.08
2022-08-20T02:57:15.114Z,2.15
2022-08-20T02:59:48.508Z,4.45
2022-08-20T03:02:20.971Z,1.73
2022-08-20T03:04:51.343Z,1.38
2022-08-20T03:07:21.999Z,1.60
2022-08-20T03:09:53.452Z,3.70
2022-08-20T03:12:23.875Z,1.73
2022-08-20T03:14:54.608Z,0.50
2022-08-20T03:17:25.425Z,2.17
2022-08-20T03:19:55.793Z,0.73
2022-08-20T03:22:26.156Z,1.30
2022-08-20T03:24:57.255Z,0.30
2022-08-20T03:27:30.607Z,2.05
2022-08-20T03:30:11.920Z,0.20
2022-08-20T03:32:43.912Z,0.65
2022-08-20T03:35:17.465Z,0.40
2022-08-20T03:37:48.564Z,0.73
2022-08-20T03:40:33.240Z,1.77
2022-08-20T03:43:04.059Z,0.70
2022-08-20T03:45:34.674Z,1.33
2022-08-20T03:48:06.312Z,0.30
2022-08-20T03:50:36.979Z,0.95
2022-08-20T03:53:07.708Z,0.60
2022-08-20T03:55:45.465Z,0.35
2022-08-20T03:58:31.594Z,0.00
2022-08-20T04:01:37.203Z,0.40
2022-08-20T04:04:00.512Z,0.00
2022-08-20T04:06:32.373Z,0.00
2022-08-20T04:09:03.224Z,0.10
2022-08-20T04:11:35.913Z,0.17
2022-08-20T04:14:06.672Z,0.08
2022-08-20T04:16:38.154Z,0.08
2022-08-20T04:19:09.122Z,0.17
2022-08-20T04:21:39.720Z,0.15
2022-08-20T04:24:31.201Z,0.00
2022-08-20T04:27:00.623Z,0.10
2022-08-20T04:29:32.738Z,0.32
2022-08-20T04:32:05.777Z,0.75
2022-08-20T04:34:37.105Z,0.00
2022-08-20T04:37:16.842Z,0.50
2022-08-20T04:40:07.426Z,0.20
2022-08-20T04:42:41.749Z,0.00
2022-08-20T04:45:14.275Z,0.00
2022-08-20T04:47:44.924Z,0.00
2022-08-20T04:50:16.776Z,0.00
2022-08-20T04:52:48.348Z,0.00
2022-08-20T04:55:20.805Z,0.08
2022-08-20T04:57:51.066Z,0.00
2022-08-20T05:00:21.908Z,0.43
2022-08-20T05:02:52.560Z,0.32
2022-08-20T05:05:24.072Z,0.65
2022-08-20T05:07:55.111Z,0.45
2022-08-20T05:10:26.363Z,0.00
2022-08-20T05:12:57.319Z,0.10
2022-08-20T05:15:28.129Z,0.63
2022-08-20T05:18:05.180Z,1.48
2022-08-20T05:20:41.996Z,0.88
2022-08-20T05:23:15.090Z,1.20
2022-08-20T05:25:48.430Z,1.33
2022-08-20T05:28:25.714Z,0.20
2022-08-20T05:33:27.193Z,1.50
2022-08-20T05:35:58.494Z,0.00
2022-08-20T05:38:32.332Z,0.30
2022-08-20T05:41:07.312Z,1.20
2022-08-20T05:43:37.662Z,0.77
2022-08-20T05:46:08.483Z,0.35
2022-08-20T05:48:39.416Z,0.32
2022-08-20T05:51:13.276Z,1.40
2022-08-20T05:53:45.843Z,0.38
2022-08-20T05:56:16.410Z,0.30
2022-08-20T05:58:47.357Z,0.00
2022-08-20T06:01:18.362Z,0.08
2022-08-20T06:04:08.017Z,1.35
2022-08-20T06:06:46.360Z,1.17
2022-08-20T06:09:31.414Z,7.10
2022-08-20T06:12:08.705Z,1.85
2022-08-20T06:14:40.390Z,0.80
2022-08-20T06:17:15.387Z,0.15
2022-08-20T06:19:48.329Z,0.15
2022-08-20T06:22:26.262Z,0.10
2022-08-20T06:24:58.524Z,0.10
2022-08-20T06:27:31.018Z,0.30
2022-08-20T06:30:01.730Z,0.35
2022-08-20T06:32:32.976Z,0.28
2022-08-20T06:35:06.832Z,0.10
2022-08-20T06:37:39.436Z,0.13
2022-08-20T06:40:18.082Z,0.10
2022-08-20T06:42:50.376Z,0.30
2022-08-20T06:45:27.566Z,0.40
2022-08-20T06:48:02.142Z,0.22
2022-08-20T06:50:47.029Z,0.20
2022-08-20T06:53:20.756Z,0.17
2022-08-20T06:55:55.246Z,0.55
2022-08-20T06:58:37.017Z,0.10
2022-08-20T07:01:11.262Z,0.57
2022-08-20T07:03:55.661Z,0.20
2022-08-20T07:06:29.800Z,0.40
2022-08-20T07:09:00.184Z,0.47
2022-08-20T07:11:30.468Z,0.70
2022-08-20T07:14:01.506Z,0.55
2022-08-20T07:16:33.954Z,0.80
2022-08-20T07:19:04.514Z,2.80
2022-08-20T07:21:35.532Z,1.13
2022-08-20T07:24:08.006Z,1.08
2022-08-20T07:26:38.417Z,0.98
2022-08-20T07:29:08.761Z,3.38
2022-08-20T07:32:14.342Z,0.80
2022-08-20T07:34:46.635Z,1.15
2022-08-20T07:37:19.635Z,0.95
2022-08-20T07:39:55.154Z,1.17
2022-08-20T07:42:25.974Z,0.17
2022-08-20T07:44:57.135Z,0.40
2022-08-20T07:47:27.914Z,0.57
2022-08-20T07:49:58.646Z,0.30
2022-08-20T07:52:29.752Z,0.82
2022-08-20T07:55:01.444Z,0.38
2022-08-20T07:57:33.173Z,0.20
2022-08-20T08:00:04.950Z,0.55
2022-08-20T08:02:35.843Z,0.73
2022-08-20T08:05:07.255Z,3.50
2022-08-20T08:07:39.838Z,5.47
2022-08-20T08:10:21.637Z,3.53
2022-08-20T08:13:04.036Z,1.20
2022-08-20T08:15:42.563Z,1.08
2022-08-20T08:18:22.315Z,1.33
2022-08-20T08:20:55.832Z,1.55
2022-08-20T08:23:31.827Z,0.68
2022-08-20T08:28:46.579Z,1.08
2022-08-20T08:31:19.217Z,1.00
2022-08-20T08:33:49.987Z,0.82
2022-08-20T08:36:20.708Z,1.02
2022-08-20T08:38:53.297Z,0.45
2022-08-20T08:41:37.861Z,0.20
2022-08-20T08:44:25.462Z,0.45
2022-08-20T08:49:39.349Z,0.70
2022-08-20T08:52:28.225Z,0.60
2022-08-20T08:55:04.845Z,1.10
2022-08-20T08:57:41.926Z,1.40
2022-08-20T09:00:26.768Z,0.47
2022-08-20T09:03:22.416Z,4.18
2022-08-20T09:06:06.415Z,5.10
2022-08-20T09:08:55.161Z,4.30
2022-08-20T09:11:27.490Z,8.80
2022-08-20T09:14:08.578Z,5.78
2022-08-20T09:16:53.081Z,5.63
2022-08-20T09:19:28.023Z,5.40
2022-08-20T09:22:36.665Z,3.88
2022-08-20T09:27:39.195Z,3.47
2022-08-20T09:30:13.505Z,3.47
2022-08-20T09:32:48.330Z,4.25
2022-08-20T09:35:21.564Z,3.03
2022-08-20T09:38:33.235Z,2.65
2022-08-20T09:40:54.257Z,3.10
2022-08-20T09:43:24.699Z,3.40
2022-08-20T09:45:55.640Z,2.28
2022-08-20T09:48:29.642Z,3.63
2022-08-20T09:51:03.454Z,1.85
2022-08-20T09:53:34.192Z,3.40
2022-08-20T09:56:05.773Z,2.45
2022-08-20T09:58:52.260Z,3.03
2022-08-20T10:01:24.430Z,4.82
2022-08-20T10:03:55.054Z,5.80
2022-08-20T10:06:25.527Z,20.05
2022-08-20T10:08:55.982Z,12.77
2022-08-20T10:11:27.083Z,5.18
2022-08-20T10:14:06.044Z,3.78
2022-08-20T10:16:38.836Z,3.33
2022-08-20T10:19:10.878Z,3.53
2022-08-20T10:21:44.101Z,4.53
2022-08-20T10:24:15.022Z,4.47
2022-08-20T10:26:46.460Z,5.63
2022-08-20T10:29:21.951Z,5.68
2022-08-20T10:31:53.908Z,5.57
2022-08-20T10:34:24.578Z,3.67
2022-08-20T10:36:56.771Z,2.88
2022-08-20T10:39:31.528Z,4.45
2022-08-20T10:42:02.265Z,5.03
2022-08-20T10:44:35.063Z,5.32
2022-08-20T10:47:31.713Z,5.88
2022-08-20T10:50:08.245Z,5.95
2022-08-20T10:52:40.298Z,4.75
2022-08-20T10:55:13.039Z,5.15
2022-08-20T10:57:48.993Z,6.00
2022-08-20T11:00:26.379Z,5.55
2022-08-20T11:03:00.397Z,5.65
2022-08-20T11:05:31.430Z,7.13
2022-08-20T11:08:04.198Z,6.95
2022-08-20T11:10:37.398Z,6.13
2022-08-20T11:13:09.838Z,5.88
2022-08-20T11:15:44.001Z,6.45
2022-08-20T11:18:16.472Z,8.05
2022-08-20T11:20:50.263Z,7.80
2022-08-20T11:23:23.476Z,7.25
2022-08-20T11:25:57.812Z,7.38
2022-08-20T11:28:33.240Z,8.13
2022-08-20T11:31:06.748Z,10.18
2022-08-20T11:33:37.147Z,10.57
2022-08-20T11:36:10.481Z,9.85
2022-08-20T11:38:43.749Z,14.07
2022-08-20T11:41:27.978Z,7.65
2022-08-20T11:44:19.955Z,9.82
2022-08-20T11:46:50.665Z,8.57
2022-08-20T11:49:23.440Z,7.43
2022-08-20T11:51:56.589Z,8.38
2022-08-20T11:54:31.006Z,9.30
2022-08-20T11:57:01.901Z,7.20
2022-08-20T11:59:32.525Z,6.88
2022-08-20T12:02:06.110Z,8.02
2022-08-20T12:04:43.422Z,7.82
2022-08-20T12:07:16.473Z,7.28
2022-08-20T12:09:51.025Z,7.15
2022-08-20T12:12:28.305Z,5.15
2022-08-20T12:15:29.804Z,7.05
2022-08-20T12:18:00.794Z,7.35
2022-08-20T12:20:44.692Z,7.53
2022-08-20T12:23:15.993Z,6.78
2022-08-20T12:25:48.755Z,4.40
2022-08-20T12:28:25.071Z,3.50
2022-08-20T12:31:02.413Z,4.60
2022-08-20T12:33:33.391Z,3.53
2022-08-20T12:36:05.317Z,4.10
2022-08-20T12:38:36.338Z,5.10
2022-08-20T12:41:08.495Z,3.60
2022-08-20T12:43:40.043Z,4.53
2022-08-20T12:46:11.066Z,3.30
2022-08-20T12:48:43.292Z,3.67
2022-08-20T12:51:16.441Z,3.88
2022-08-20T12:53:48.551Z,4.18
2022-08-20T12:56:19.488Z,4.63
2022-08-20T12:58:53.746Z,5.07
2022-08-20T13:01:28.366Z,5.18
2022-08-20T13:03:58.859Z,3.22
2022-08-20T13:06:33.362Z,4.25
2022-08-20T13:09:09.954Z,2.33
2022-08-20T13:11:40.490Z,4.07
2022-08-20T13:14:12.437Z,3.75
2022-08-20T13:16:42.883Z,3.58
2022-08-20T13:19:23.535Z,2.35
2022-08-20T13:21:55.629Z,3.38
2022-08-20T13:24:31.598Z,2.50
2022-08-20T13:27:20.366Z,4.45
2022-08-20T13:30:04.401Z,3.35
2022-08-20T13:32:36.675Z,3.88
2022-08-20T13:35:14.752Z,3.50
2022-08-20T13:37:46.963Z,3.10
2022-08-20T13:40:19.329Z,7.22
2022-08-20T13:42:53.324Z,2.78
2022-08-20T13:45:26.648Z,3.40
2022-08-20T13:48:00.355Z,2.63
2022-08-20T13:50:32.051Z,10.50
2022-08-20T13:53:03.640Z,12.65
2022-08-20T13:55:38.597Z,6.60
2022-08-20T13:58:12.782Z,4.55
2022-08-20T14:00:45.738Z,2.08
2022-08-20T14:03:26.030Z,3.17
2022-08-20T14:06:02.671Z,5.55
2022-08-20T14:08:40.082Z,2.35
2022-08-20T14:11:17.632Z,4.63
2022-08-20T14:13:49.924Z,3.80
2022-08-20T14:16:28.028Z,2.65
2022-08-20T14:18:59.156Z,3.17
2022-08-20T14:21:32.060Z,2.13
2022-08-20T14:24:04.819Z,5.05
2022-08-20T14:26:38.076Z,3.33
2022-08-20T14:29:11.619Z,3.50
2022-08-20T14:31:46.633Z,2.55
2022-08-20T14:34:17.179Z,2.20
2022-08-20T14:36:48.981Z,2.67
2022-08-20T14:39:26.769Z,2.55
2022-08-20T14:41:57.216Z,2.10
2022-08-20T14:44:32.175Z,1.38
2022-08-20T14:47:33.895Z,1.30
2022-08-20T14:50:10.108Z,2.40
2022-08-20T14:52:47.489Z,3.38
2022-08-20T14:55:25.028Z,2.35
2022-08-20T14:57:59.486Z,2.30
2022-08-20T15:00:39.999Z,1.38
2022-08-20T15:03:12.241Z,2.70
2022-08-20T15:05:48.579Z,1.85
2022-08-20T15:08:35.571Z,2.25
2022-08-20T15:11:10.505Z,8.23
2022-08-20T15:13:51.499Z,3.53
2022-08-20T15:16:28.295Z,2.22
2022-08-20T15:19:03.795Z,6.82
2022-08-20T15:21:45.314Z,2.03
2022-08-20T15:24:19.692Z,2.10
2022-08-20T15:26:51.631Z,3.45
2022-08-20T15:29:26.872Z,4.63
2022-08-20T15:31:58.681Z,4.32
2022-08-20T15:34:29.312Z,5.35
2022-08-20T15:37:07.672Z,2.42
2022-08-20T15:39:39.891Z,3.33
2022-08-20T15:42:14.003Z,1.80
2022-08-20T15:44:48.792Z,3.28
2022-08-20T15:47:29.393Z,4.45
2022-08-20T15:50:14.039Z,3.20
2022-08-20T15:52:47.533Z,2.80
2022-08-20T15:55:27.351Z,3.38
2022-08-20T15:58:20.822Z,1.55
2022-08-20T16:01:26.613Z,1.83
2022-08-20T16:04:23.550Z,1.45
2022-08-20T16:06:56.590Z,1.33
2022-08-20T16:09:44.434Z,3.88
2022-08-20T16:12:41.678Z,1.73
2022-08-20T16:15:23.448Z,2.83
2022-08-20T16:18:35.541Z,3.75
2022-08-20T16:21:16.566Z,2.25
2022-08-20T16:23:52.361Z,3.10
2022-08-20T16:26:53.789Z,1.75
2022-08-20T16:47:42.164Z,1.20
2022-08-20T16:50:43.683Z,2.30
2022-08-20T16:53:34.021Z,7.60
2022-08-20T16:56:26.099Z,1.75
2022-08-20T16:59:26.558Z,3.40
2022-08-20T17:09:14.323Z,1.73
2022-08-20T17:11:58.352Z,2.70
2022-08-20T17:14:40.937Z,3.70
2022-08-20T18:21:11.289Z,2.97
2022-08-20T18:37:40.118Z,1.92
2022-08-20T18:55:17.408Z,3.45
2022-08-20T19:06:54.330Z,4.30
2022-08-20T19:21:49.646Z,1.67
2022-08-20T19:24:30.441Z,2.70
2022-08-20T19:47:23.735Z,3.47
2022-08-20T19:57:37.998Z,6.00
2022-08-20T21:48:52.290Z,4.28
2022-08-20T21:51:22.975Z,6.13
2022-08-20T21:53:53.797Z,3.72
2022-08-20T21:56:24.743Z,4.50
2022-08-20T21:58:57.798Z,4.32
2022-08-20T22:01:30.737Z,3.40
2022-08-20T22:04:02.007Z,5.13
2022-08-20T22:06:34.015Z,5.75
2022-08-20T22:09:08.171Z,4.95
2022-08-20T22:11:53.900Z,3.80
2022-08-20T22:14:38.393Z,2.80
2022-08-20T22:17:09.431Z,2.65
2022-08-20T22:19:42.804Z,2.22
2022-08-20T22:22:18.942Z,6.40
2022-08-20T22:24:49.415Z,2.60
2022-08-20T22:27:19.906Z,5.15
2022-08-20T22:29:50.771Z,3.20
2022-08-20T22:32:22.525Z,3.75
2022-08-20T22:35:04.972Z,3.08
2022-08-20T22:37:36.819Z,2.72
2022-08-20T22:40:08.805Z,2.75
2022-08-20T22:42:40.403Z,2.10
2022-08-20T22:45:14.871Z,2.58
2022-08-20T22:47:45.989Z,2.90
2022-08-20T22:50:19.995Z,3.55
2022-08-20T22:55:34.263Z,4.97
2022-08-20T22:58:07.016Z,2.33
2022-08-20T23:00:39.376Z,2.90
2022-08-20T23:03:10.037Z,1.10
2022-08-20T23:05:40.964Z,2.25
2022-08-20T23:08:12.095Z,1.63
2022-08-20T23:10:43.067Z,1.00
2022-08-20T23:13:13.930Z,3.63
2022-08-20T23:15:46.194Z,6.55
2022-08-20T23:18:21.974Z,3.38
2022-08-20T23:20:57.967Z,1.45
2022-08-20T23:23:30.587Z,2.20
2022-08-20T23:26:01.332Z,2.20
2022-08-20T23:28:31.808Z,3.35
2022-08-20T23:31:02.779Z,2.67
2022-08-20T23:33:36.019Z,2.08
2022-08-20T23:36:10.122Z,4.38
2022-08-20T23:38:41.807Z,3.72
2022-08-20T23:41:12.825Z,3.30
2022-08-20T23:43:43.220Z,2.13
2022-08-20T23:46:14.298Z,2.50
2022-08-20T23:48:45.548Z,1.80
2022-08-20T23:51:16.636Z,4.05
2022-08-20T23:53:47.088Z,4.05
2022-08-20T23:56:17.565Z,2.85
2022-08-20T23:58:48.140Z,2.95
